sensor_id;sensor_type;location;lat;lon;timestamp;P1;durP1;ratioP1;P2;durP2;ratioP2
25111;SDS011;13092;51.996;4.458;2023-04-24T00:00:39;23.55;;;21.60;;
25111;SDS011;13092;51.996;4.458;2023-04-24T00:03:07;23.70;;;21.90;;
25111;SDS011;13092;51.996;4.458;2023-04-24T00:05:36;23.63;;;21.67;;
25111;SDS011;13092;51.996;4.458;2023-04-24T00:08:06;23.70;;;21.70;;
25111;SDS011;13092;51.996;4.458;2023-04-24T00:10:34;24.20;;;22.35;;
25111;SDS011;13092;51.996;4.458;2023-04-24T00:13:03;24.25;;;22.15;;
25111;SDS011;13092;51.996;4.458;2023-04-24T00:15:32;23.98;;;22.17;;
25111;SDS011;13092;51.996;4.458;2023-04-24T00:18:00;23.95;;;22.15;;
25111;SDS011;13092;51.996;4.458;2023-04-24T00:20:29;23.38;;;21.55;;
25111;SDS011;13092;51.996;4.458;2023-04-24T00:22:58;24.15;;;22.05;;
25111;SDS011;13092;51.996;4.458;2023-04-24T00:25:27;23.75;;;21.95;;
25111;SDS011;13092;51.996;4.458;2023-04-24T00:27:55;23.90;;;22.02;;
25111;SDS011;13092;51.996;4.458;2023-04-24T00:30:23;23.73;;;21.73;;
25111;SDS011;13092;51.996;4.458;2023-04-24T00:32:53;24.17;;;22.15;;
25111;SDS011;13092;51.996;4.458;2023-04-24T00:35:21;24.38;;;22.48;;
25111;SDS011;13092;51.996;4.458;2023-04-24T00:37:49;23.65;;;21.85;;
25111;SDS011;13092;51.996;4.458;2023-04-24T00:40:19;23.73;;;21.90;;
25111;SDS011;13092;51.996;4.458;2023-04-24T00:42:48;23.77;;;21.98;;
25111;SDS011;13092;51.996;4.458;2023-04-24T00:45:16;23.52;;;21.73;;
25111;SDS011;13092;51.996;4.458;2023-04-24T00:47:45;23.90;;;22.00;;
25111;SDS011;13092;51.996;4.458;2023-04-24T00:50:15;23.58;;;21.67;;
25111;SDS011;13092;51.996;4.458;2023-04-24T00:52:46;24.20;;;22.27;;
25111;SDS011;13092;51.996;4.458;2023-04-24T00:55:14;24.65;;;22.55;;
25111;SDS011;13092;51.996;4.458;2023-04-24T00:57:42;24.48;;;22.58;;
25111;SDS011;13092;51.996;4.458;2023-04-24T01:00:12;23.92;;;22.00;;
25111;SDS011;13092;51.996;4.458;2023-04-24T01:02:42;24.95;;;22.95;;
25111;SDS011;13092;51.996;4.458;2023-04-24T01:05:12;24.05;;;22.20;;
25111;SDS011;13092;51.996;4.458;2023-04-24T01:07:43;23.70;;;21.92;;
25111;SDS011;13092;51.996;4.458;2023-04-24T01:10:14;23.45;;;21.60;;
25111;SDS011;13092;51.996;4.458;2023-04-24T01:12:43;23.30;;;21.45;;
25111;SDS011;13092;51.996;4.458;2023-04-24T01:15:12;23.48;;;21.67;;
25111;SDS011;13092;51.996;4.458;2023-04-24T01:17:40;23.33;;;21.63;;
25111;SDS011;13092;51.996;4.458;2023-04-24T01:20:08;23.80;;;21.90;;
25111;SDS011;13092;51.996;4.458;2023-04-24T01:22:39;23.90;;;22.10;;
25111;SDS011;13092;51.996;4.458;2023-04-24T01:25:08;23.48;;;21.77;;
25111;SDS011;13092;51.996;4.458;2023-04-24T01:27:36;23.02;;;21.33;;
25111;SDS011;13092;51.996;4.458;2023-04-24T01:30:07;23.35;;;21.65;;
25111;SDS011;13092;51.996;4.458;2023-04-24T01:32:36;23.30;;;21.60;;
25111;SDS011;13092;51.996;4.458;2023-04-24T01:35:05;23.40;;;21.70;;
25111;SDS011;13092;51.996;4.458;2023-04-24T01:37:34;23.35;;;21.48;;
25111;SDS011;13092;51.996;4.458;2023-04-24T01:40:06;23.40;;;21.70;;
25111;SDS011;13092;51.996;4.458;2023-04-24T01:42:35;23.48;;;21.77;;
25111;SDS011;13092;51.996;4.458;2023-04-24T01:45:04;23.55;;;21.75;;
25111;SDS011;13092;51.996;4.458;2023-04-24T01:47:33;23.75;;;21.85;;
25111;SDS011;13092;51.996;4.458;2023-04-24T01:50:04;24.13;;;22.10;;
25111;SDS011;13092;51.996;4.458;2023-04-24T01:52:33;23.75;;;21.67;;
25111;SDS011;13092;51.996;4.458;2023-04-24T01:55:02;24.10;;;22.30;;
25111;SDS011;13092;51.996;4.458;2023-04-24T01:57:33;24.42;;;22.42;;
25111;SDS011;13092;51.996;4.458;2023-04-24T02:00:08;24.42;;;22.48;;
25111;SDS011;13092;51.996;4.458;2023-04-24T02:02:38;23.88;;;22.08;;
25111;SDS011;13092;51.996;4.458;2023-04-24T02:05:10;24.42;;;22.55;;
25111;SDS011;13092;51.996;4.458;2023-04-24T02:07:39;24.60;;;22.70;;
25111;SDS011;13092;51.996;4.458;2023-04-24T02:10:07;24.80;;;22.73;;
25111;SDS011;13092;51.996;4.458;2023-04-24T02:12:38;24.92;;;22.92;;
25111;SDS011;13092;51.996;4.458;2023-04-24T02:15:09;24.95;;;22.95;;
25111;SDS011;13092;51.996;4.458;2023-04-24T02:17:38;25.17;;;23.20;;
25111;SDS011;13092;51.996;4.458;2023-04-24T02:20:09;25.40;;;23.40;;
25111;SDS011;13092;51.996;4.458;2023-04-24T02:22:38;24.80;;;22.90;;
25111;SDS011;13092;51.996;4.458;2023-04-24T02:25:09;25.45;;;23.35;;
25111;SDS011;13092;51.996;4.458;2023-04-24T02:27:39;24.63;;;22.73;;
25111;SDS011;13092;51.996;4.458;2023-04-24T02:30:10;25.08;;;23.17;;
25111;SDS011;13092;51.996;4.458;2023-04-24T02:32:38;24.17;;;22.38;;
25111;SDS011;13092;51.996;4.458;2023-04-24T02:35:07;24.38;;;22.58;;
25111;SDS011;13092;51.996;4.458;2023-04-24T02:37:36;24.35;;;22.40;;
25111;SDS011;13092;51.996;4.458;2023-04-24T02:40:04;24.52;;;22.65;;
25111;SDS011;13092;51.996;4.458;2023-04-24T02:42:33;24.17;;;22.27;;
25111;SDS011;13092;51.996;4.458;2023-04-24T02:45:03;24.77;;;22.88;;
25111;SDS011;13092;51.996;4.458;2023-04-24T02:47:32;23.90;;;22.10;;
25111;SDS011;13092;51.996;4.458;2023-04-24T02:50:01;24.23;;;22.40;;
25111;SDS011;13092;51.996;4.458;2023-04-24T02:52:29;23.95;;;22.17;;
25111;SDS011;13092;51.996;4.458;2023-04-24T02:54:57;24.38;;;22.63;;
25111;SDS011;13092;51.996;4.458;2023-04-24T02:57:27;24.63;;;22.65;;
25111;SDS011;13092;51.996;4.458;2023-04-24T02:59:55;24.00;;;22.20;;
25111;SDS011;13092;51.996;4.458;2023-04-24T03:02:24;24.30;;;22.50;;
25111;SDS011;13092;51.996;4.458;2023-04-24T03:04:53;25.08;;;23.10;;
25111;SDS011;13092;51.996;4.458;2023-04-24T03:07:21;24.85;;;23.15;;
25111;SDS011;13092;51.996;4.458;2023-04-24T03:09:50;24.85;;;22.95;;
25111;SDS011;13092;51.996;4.458;2023-04-24T03:12:19;25.58;;;23.50;;
25111;SDS011;13092;51.996;4.458;2023-04-24T03:14:50;25.70;;;23.65;;
25111;SDS011;13092;51.996;4.458;2023-04-24T03:17:18;26.50;;;24.42;;
25111;SDS011;13092;51.996;4.458;2023-04-24T03:19:47;26.27;;;24.05;;
25111;SDS011;13092;51.996;4.458;2023-04-24T03:22:16;24.67;;;22.88;;
25111;SDS011;13092;51.996;4.458;2023-04-24T03:24:44;25.05;;;23.15;;
25111;SDS011;13092;51.996;4.458;2023-04-24T03:27:12;24.98;;;23.17;;
25111;SDS011;13092;51.996;4.458;2023-04-24T03:29:43;24.67;;;22.88;;
25111;SDS011;13092;51.996;4.458;2023-04-24T03:32:11;24.35;;;22.65;;
25111;SDS011;13092;51.996;4.458;2023-04-24T03:34:39;24.67;;;22.88;;
25111;SDS011;13092;51.996;4.458;2023-04-24T03:37:12;25.40;;;23.40;;
25111;SDS011;13092;51.996;4.458;2023-04-24T03:39:40;24.83;;;22.90;;
25111;SDS011;13092;51.996;4.458;2023-04-24T03:42:09;25.02;;;23.13;;
25111;SDS011;13092;51.996;4.458;2023-04-24T03:44:37;24.85;;;23.05;;
25111;SDS011;13092;51.996;4.458;2023-04-24T03:47:06;24.75;;;22.95;;
25111;SDS011;13092;51.996;4.458;2023-04-24T03:49:35;24.63;;;22.83;;
25111;SDS011;13092;51.996;4.458;2023-04-24T03:52:03;24.88;;;23.08;;
25111;SDS011;13092;51.996;4.458;2023-04-24T03:54:32;24.90;;;23.10;;
25111;SDS011;13092;51.996;4.458;2023-04-24T03:57:01;24.98;;;23.15;;
25111;SDS011;13092;51.996;4.458;2023-04-24T03:59:30;25.33;;;23.52;;
25111;SDS011;13092;51.996;4.458;2023-04-24T04:01:58;24.75;;;22.95;;
25111;SDS011;13092;51.996;4.458;2023-04-24T04:04:26;25.13;;;23.27;;
25111;SDS011;13092;51.996;4.458;2023-04-24T04:06:54;25.08;;;23.15;;
25111;SDS011;13092;51.996;4.458;2023-04-24T04:09:22;25.05;;;23.25;;
25111;SDS011;13092;51.996;4.458;2023-04-24T04:11:52;25.65;;;23.75;;
25111;SDS011;13092;51.996;4.458;2023-04-24T04:14:21;25.52;;;23.63;;
25111;SDS011;13092;51.996;4.458;2023-04-24T04:16:50;24.58;;;22.67;;
25111;SDS011;13092;51.996;4.458;2023-04-24T04:19:20;24.30;;;22.55;;
25111;SDS011;13092;51.996;4.458;2023-04-24T04:21:48;24.85;;;22.95;;
25111;SDS011;13092;51.996;4.458;2023-04-24T04:24:19;24.02;;;22.33;;
25111;SDS011;13092;51.996;4.458;2023-04-24T04:26:51;24.25;;;22.20;;
25111;SDS011;13092;51.996;4.458;2023-04-24T04:29:22;24.67;;;22.77;;
25111;SDS011;13092;51.996;4.458;2023-04-24T04:31:52;24.48;;;22.58;;
25111;SDS011;13092;51.996;4.458;2023-04-24T04:34:21;25.17;;;23.08;;
25111;SDS011;13092;51.996;4.458;2023-04-24T04:36:49;24.60;;;22.70;;
25111;SDS011;13092;51.996;4.458;2023-04-24T04:39:18;25.73;;;23.60;;
25111;SDS011;13092;51.996;4.458;2023-04-24T04:41:47;24.20;;;22.20;;
25111;SDS011;13092;51.996;4.458;2023-04-24T04:44:18;24.27;;;22.35;;
25111;SDS011;13092;51.996;4.458;2023-04-24T04:46:47;25.05;;;22.80;;
25111;SDS011;13092;51.996;4.458;2023-04-24T04:49:16;25.35;;;23.27;;
25111;SDS011;13092;51.996;4.458;2023-04-24T04:51:45;24.70;;;22.70;;
25111;SDS011;13092;51.996;4.458;2023-04-24T04:54:13;26.08;;;23.75;;
25111;SDS011;13092;51.996;4.458;2023-04-24T04:56:42;28.45;;;26.08;;
25111;SDS011;13092;51.996;4.458;2023-04-24T04:59:10;28.90;;;26.20;;
25111;SDS011;13092;51.996;4.458;2023-04-24T05:01:43;30.17;;;27.25;;
25111;SDS011;13092;51.996;4.458;2023-04-24T05:04:11;31.95;;;28.55;;
25111;SDS011;13092;51.996;4.458;2023-04-24T05:06:39;30.70;;;27.67;;
25111;SDS011;13092;51.996;4.458;2023-04-24T05:09:11;31.23;;;28.33;;
25111;SDS011;13092;51.996;4.458;2023-04-24T05:11:39;32.67;;;28.80;;
25111;SDS011;13092;51.996;4.458;2023-04-24T05:14:07;31.38;;;28.42;;
25111;SDS011;13092;51.996;4.458;2023-04-24T05:16:35;30.88;;;27.73;;
25111;SDS011;13092;51.996;4.458;2023-04-24T05:19:05;30.95;;;27.95;;
25111;SDS011;13092;51.996;4.458;2023-04-24T05:21:38;29.30;;;26.63;;
25111;SDS011;13092;51.996;4.458;2023-04-24T05:24:06;29.35;;;26.77;;
25111;SDS011;13092;51.996;4.458;2023-04-24T05:26:34;30.40;;;27.20;;
25111;SDS011;13092;51.996;4.458;2023-04-24T05:29:03;31.20;;;27.98;;
25111;SDS011;13092;51.996;4.458;2023-04-24T05:31:31;30.98;;;27.77;;
25111;SDS011;13092;51.996;4.458;2023-04-24T05:34:00;31.15;;;27.92;;
25111;SDS011;13092;51.996;4.458;2023-04-24T05:36:29;30.45;;;27.33;;
25111;SDS011;13092;51.996;4.458;2023-04-24T05:38:58;31.65;;;28.58;;
25111;SDS011;13092;51.996;4.458;2023-04-24T05:41:26;30.58;;;27.67;;
25111;SDS011;13092;51.996;4.458;2023-04-24T05:43:54;32.33;;;28.75;;
25111;SDS011;13092;51.996;4.458;2023-04-24T05:46:23;31.23;;;28.05;;
25111;SDS011;13092;51.996;4.458;2023-04-24T05:48:51;32.90;;;29.17;;
25111;SDS011;13092;51.996;4.458;2023-04-24T05:51:21;30.00;;;27.40;;
25111;SDS011;13092;51.996;4.458;2023-04-24T05:53:51;32.97;;;29.42;;
25111;SDS011;13092;51.996;4.458;2023-04-24T05:56:19;32.67;;;29.30;;
25111;SDS011;13092;51.996;4.458;2023-04-24T05:58:47;31.55;;;28.55;;
25111;SDS011;13092;51.996;4.458;2023-04-24T06:01:15;30.80;;;28.00;;
25111;SDS011;13092;51.996;4.458;2023-04-24T06:03:44;31.00;;;27.83;;
25111;SDS011;13092;51.996;4.458;2023-04-24T06:06:13;32.60;;;28.67;;
25111;SDS011;13092;51.996;4.458;2023-04-24T06:08:42;36.33;;;30.05;;
25111;SDS011;13092;51.996;4.458;2023-04-24T06:11:13;32.78;;;27.35;;
25111;SDS011;13092;51.996;4.458;2023-04-24T06:13:41;36.95;;;27.77;;
25111;SDS011;13092;51.996;4.458;2023-04-24T06:16:09;29.88;;;26.77;;
25111;SDS011;13092;51.996;4.458;2023-04-24T06:18:38;29.70;;;26.42;;
25111;SDS011;13092;51.996;4.458;2023-04-24T06:21:08;30.42;;;27.15;;
25111;SDS011;13092;51.996;4.458;2023-04-24T06:23:36;28.33;;;25.65;;
25111;SDS011;13092;51.996;4.458;2023-04-24T06:26:04;30.80;;;27.60;;
25111;SDS011;13092;51.996;4.458;2023-04-24T06:28:36;30.15;;;26.77;;
25111;SDS011;13092;51.996;4.458;2023-04-24T06:31:04;29.58;;;26.73;;
25111;SDS011;13092;51.996;4.458;2023-04-24T06:33:32;29.13;;;26.63;;
25111;SDS011;13092;51.996;4.458;2023-04-24T06:36:00;29.85;;;26.67;;
25111;SDS011;13092;51.996;4.458;2023-04-24T06:38:30;29.67;;;26.55;;
25111;SDS011;13092;51.996;4.458;2023-04-24T06:40:58;30.58;;;27.33;;
25111;SDS011;13092;51.996;4.458;2023-04-24T06:43:27;29.40;;;26.40;;
25111;SDS011;13092;51.996;4.458;2023-04-24T06:45:57;30.52;;;26.35;;
25111;SDS011;13092;51.996;4.458;2023-04-24T06:48:25;31.20;;;27.23;;
25111;SDS011;13092;51.996;4.458;2023-04-24T06:50:53;32.30;;;26.80;;
25111;SDS011;13092;51.996;4.458;2023-04-24T06:53:22;31.67;;;27.00;;
25111;SDS011;13092;51.996;4.458;2023-04-24T06:55:52;30.50;;;27.23;;
25111;SDS011;13092;51.996;4.458;2023-04-24T06:58:20;31.42;;;28.30;;
25111;SDS011;13092;51.996;4.458;2023-04-24T07:00:48;35.78;;;27.70;;
25111;SDS011;13092;51.996;4.458;2023-04-24T07:03:18;30.73;;;27.73;;
25111;SDS011;13092;51.996;4.458;2023-04-24T07:05:47;30.35;;;27.45;;
25111;SDS011;13092;51.996;4.458;2023-04-24T07:08:16;30.38;;;27.40;;
25111;SDS011;13092;51.996;4.458;2023-04-24T07:10:44;30.67;;;27.67;;
25111;SDS011;13092;51.996;4.458;2023-04-24T07:13:12;31.38;;;28.02;;
25111;SDS011;13092;51.996;4.458;2023-04-24T07:15:40;30.60;;;27.58;;
25111;SDS011;13092;51.996;4.458;2023-04-24T07:18:08;30.85;;;27.63;;
25111;SDS011;13092;51.996;4.458;2023-04-24T07:20:38;30.00;;;27.25;;
25111;SDS011;13092;51.996;4.458;2023-04-24T07:23:07;31.50;;;28.45;;
25111;SDS011;13092;51.996;4.458;2023-04-24T07:25:36;33.70;;;29.58;;
25111;SDS011;13092;51.996;4.458;2023-04-24T07:28:04;32.92;;;29.83;;
25111;SDS011;13092;51.996;4.458;2023-04-24T07:30:33;32.65;;;29.48;;
25111;SDS011;13092;51.996;4.458;2023-04-24T07:33:01;32.50;;;29.48;;
25111;SDS011;13092;51.996;4.458;2023-04-24T07:35:30;33.30;;;29.75;;
25111;SDS011;13092;51.996;4.458;2023-04-24T07:37:59;33.60;;;30.27;;
25111;SDS011;13092;51.996;4.458;2023-04-24T07:40:28;34.35;;;30.85;;
25111;SDS011;13092;51.996;4.458;2023-04-24T07:42:56;33.33;;;30.23;;
25111;SDS011;13092;51.996;4.458;2023-04-24T07:45:24;36.58;;;30.52;;
25111;SDS011;13092;51.996;4.458;2023-04-24T07:47:54;34.13;;;30.70;;
25111;SDS011;13092;51.996;4.458;2023-04-24T07:50:23;33.53;;;30.52;;
25111;SDS011;13092;51.996;4.458;2023-04-24T07:52:51;33.42;;;30.33;;
25111;SDS011;13092;51.996;4.458;2023-04-24T07:55:20;34.85;;;31.60;;
25111;SDS011;13092;51.996;4.458;2023-04-24T07:57:53;34.92;;;31.83;;
25111;SDS011;13092;51.996;4.458;2023-04-24T08:00:22;34.78;;;31.75;;
25111;SDS011;13092;51.996;4.458;2023-04-24T08:02:50;34.78;;;31.73;;
25111;SDS011;13092;51.996;4.458;2023-04-24T08:05:19;34.63;;;31.67;;
25111;SDS011;13092;51.996;4.458;2023-04-24T08:07:47;34.85;;;31.80;;
25111;SDS011;13092;51.996;4.458;2023-04-24T08:10:16;36.03;;;32.80;;
25111;SDS011;13092;51.996;4.458;2023-04-24T08:12:46;35.63;;;32.47;;
25111;SDS011;13092;51.996;4.458;2023-04-24T08:15:14;35.80;;;32.72;;
25111;SDS011;13092;51.996;4.458;2023-04-24T08:17:42;35.33;;;32.10;;
25111;SDS011;13092;51.996;4.458;2023-04-24T08:20:11;35.75;;;32.83;;
25111;SDS011;13092;51.996;4.458;2023-04-24T08:22:41;36.40;;;33.40;;
25111;SDS011;13092;51.996;4.458;2023-04-24T08:25:10;36.47;;;33.13;;
25111;SDS011;13092;51.996;4.458;2023-04-24T08:27:38;36.20;;;33.42;;
25111;SDS011;13092;51.996;4.458;2023-04-24T08:30:08;36.08;;;33.13;;
25111;SDS011;13092;51.996;4.458;2023-04-24T08:32:36;35.63;;;32.63;;
25111;SDS011;13092;51.996;4.458;2023-04-24T08:35:07;35.28;;;32.65;;
25111;SDS011;13092;51.996;4.458;2023-04-24T08:37:36;36.08;;;33.05;;
25111;SDS011;13092;51.996;4.458;2023-04-24T08:40:05;35.80;;;32.83;;
25111;SDS011;13092;51.996;4.458;2023-04-24T08:42:41;37.45;;;34.30;;
25111;SDS011;13092;51.996;4.458;2023-04-24T08:45:12;37.05;;;34.13;;
25111;SDS011;13092;51.996;4.458;2023-04-24T08:47:41;37.97;;;35.08;;
25111;SDS011;13092;51.996;4.458;2023-04-24T08:50:10;36.92;;;34.15;;
25111;SDS011;13092;51.996;4.458;2023-04-24T08:52:38;38.20;;;35.35;;
25111;SDS011;13092;51.996;4.458;2023-04-24T08:55:07;38.45;;;35.53;;
25111;SDS011;13092;51.996;4.458;2023-04-24T08:57:36;36.90;;;34.00;;
25111;SDS011;13092;51.996;4.458;2023-04-24T09:00:07;37.53;;;34.72;;
25111;SDS011;13092;51.996;4.458;2023-04-24T09:02:40;37.97;;;34.70;;
25111;SDS011;13092;51.996;4.458;2023-04-24T09:05:10;36.45;;;33.47;;
25111;SDS011;13092;51.996;4.458;2023-04-24T09:07:42;36.03;;;32.88;;
25111;SDS011;13092;51.996;4.458;2023-04-24T09:10:14;36.10;;;33.05;;
25111;SDS011;13092;51.996;4.458;2023-04-24T09:12:42;37.13;;;33.95;;
25111;SDS011;13092;51.996;4.458;2023-04-24T09:15:12;37.95;;;34.83;;
25111;SDS011;13092;51.996;4.458;2023-04-24T09:17:42;38.45;;;35.42;;
25111;SDS011;13092;51.996;4.458;2023-04-24T09:20:10;37.55;;;34.55;;
25111;SDS011;13092;51.996;4.458;2023-04-24T09:22:39;36.90;;;33.88;;
25111;SDS011;13092;51.996;4.458;2023-04-24T09:25:07;39.42;;;36.08;;
25111;SDS011;13092;51.996;4.458;2023-04-24T09:27:41;38.70;;;35.80;;
25111;SDS011;13092;51.996;4.458;2023-04-24T09:30:11;38.90;;;35.53;;
25111;SDS011;13092;51.996;4.458;2023-04-24T09:32:44;39.42;;;36.20;;
25111;SDS011;13092;51.996;4.458;2023-04-24T09:35:13;38.65;;;35.47;;
25111;SDS011;13092;51.996;4.458;2023-04-24T09:37:43;39.33;;;36.25;;
25111;SDS011;13092;51.996;4.458;2023-04-24T09:40:12;39.55;;;36.55;;
25111;SDS011;13092;51.996;4.458;2023-04-24T09:42:45;40.03;;;36.83;;
25111;SDS011;13092;51.996;4.458;2023-04-24T09:45:18;39.25;;;36.15;;
25111;SDS011;13092;51.996;4.458;2023-04-24T09:47:52;40.80;;;37.47;;
25111;SDS011;13092;51.996;4.458;2023-04-24T09:50:21;40.17;;;36.90;;
25111;SDS011;13092;51.996;4.458;2023-04-24T09:52:55;40.17;;;37.10;;
25111;SDS011;13092;51.996;4.458;2023-04-24T09:55:25;41.40;;;38.00;;
25111;SDS011;13092;51.996;4.458;2023-04-24T09:57:54;40.10;;;36.92;;
25111;SDS011;13092;51.996;4.458;2023-04-24T10:00:27;40.00;;;36.90;;
25111;SDS011;13092;51.996;4.458;2023-04-24T10:02:58;41.03;;;37.92;;
25111;SDS011;13092;51.996;4.458;2023-04-24T10:05:28;40.47;;;37.42;;
25111;SDS011;13092;51.996;4.458;2023-04-24T10:07:59;41.17;;;38.08;;
25111;SDS011;13092;51.996;4.458;2023-04-24T10:10:29;40.53;;;37.55;;
25111;SDS011;13092;51.996;4.458;2023-04-24T10:12:59;39.17;;;36.08;;
25111;SDS011;13092;51.996;4.458;2023-04-24T10:15:33;40.83;;;37.40;;
25111;SDS011;13092;51.996;4.458;2023-04-24T10:18:04;39.92;;;36.63;;
25111;SDS011;13092;51.996;4.458;2023-04-24T10:20:33;39.47;;;36.22;;
25111;SDS011;13092;51.996;4.458;2023-04-24T10:23:02;40.92;;;37.53;;
25111;SDS011;13092;51.996;4.458;2023-04-24T10:25:32;41.78;;;37.97;;
25111;SDS011;13092;51.996;4.458;2023-04-24T10:28:01;40.75;;;37.05;;
25111;SDS011;13092;51.996;4.458;2023-04-24T10:30:34;40.63;;;37.22;;
25111;SDS011;13092;51.996;4.458;2023-04-24T10:33:04;40.17;;;36.60;;
25111;SDS011;13092;51.996;4.458;2023-04-24T10:35:34;39.20;;;35.50;;
25111;SDS011;13092;51.996;4.458;2023-04-24T10:38:05;39.20;;;35.38;;
25111;SDS011;13092;51.996;4.458;2023-04-24T10:40:36;40.40;;;36.88;;
25111;SDS011;13092;51.996;4.458;2023-04-24T10:43:10;39.85;;;36.05;;
25111;SDS011;13092;51.996;4.458;2023-04-24T10:45:59;42.05;;;38.33;;
25111;SDS011;13092;51.996;4.458;2023-04-24T10:48:31;41.47;;;38.00;;
25111;SDS011;13092;51.996;4.458;2023-04-24T10:50:59;40.88;;;37.08;;
25111;SDS011;13092;51.996;4.458;2023-04-24T10:53:31;42.63;;;38.92;;
25111;SDS011;13092;51.996;4.458;2023-04-24T10:56:03;40.10;;;36.85;;
25111;SDS011;13092;51.996;4.458;2023-04-24T10:58:36;41.13;;;37.47;;
25111;SDS011;13092;51.996;4.458;2023-04-24T11:01:06;40.10;;;36.80;;
25111;SDS011;13092;51.996;4.458;2023-04-24T11:03:36;40.63;;;37.15;;
25111;SDS011;13092;51.996;4.458;2023-04-24T11:06:08;41.80;;;38.88;;
25111;SDS011;13092;51.996;4.458;2023-04-24T11:08:37;41.13;;;38.33;;
25111;SDS011;13092;51.996;4.458;2023-04-24T11:11:09;41.53;;;38.53;;
25111;SDS011;13092;51.996;4.458;2023-04-24T11:16:34;41.63;;;38.80;;
25111;SDS011;13092;51.996;4.458;2023-04-24T11:19:06;40.92;;;38.13;;
25111;SDS011;13092;51.996;4.458;2023-04-24T11:21:40;40.78;;;37.67;;
25111;SDS011;13092;51.996;4.458;2023-04-24T11:24:22;41.15;;;38.35;;
25111;SDS011;13092;51.996;4.458;2023-04-24T11:26:56;39.05;;;36.65;;
25111;SDS011;13092;51.996;4.458;2023-04-24T11:34:57;40.30;;;37.60;;
25111;SDS011;13092;51.996;4.458;2023-04-24T11:37:27;39.78;;;37.13;;
25111;SDS011;13092;51.996;4.458;2023-04-24T11:39:57;39.20;;;36.63;;
25111;SDS011;13092;51.996;4.458;2023-04-24T11:42:26;38.15;;;35.53;;
25111;SDS011;13092;51.996;4.458;2023-04-24T11:44:55;40.75;;;38.10;;
25111;SDS011;13092;51.996;4.458;2023-04-24T11:47:30;42.65;;;39.40;;
25111;SDS011;13092;51.996;4.458;2023-04-24T11:50:01;41.67;;;38.78;;
25111;SDS011;13092;51.996;4.458;2023-04-24T11:52:31;42.90;;;39.67;;
25111;SDS011;13092;51.996;4.458;2023-04-24T11:54:59;43.95;;;40.72;;
25111;SDS011;13092;51.996;4.458;2023-04-24T11:57:27;45.10;;;41.72;;
25111;SDS011;13092;51.996;4.458;2023-04-24T11:59:59;44.47;;;41.25;;
25111;SDS011;13092;51.996;4.458;2023-04-24T12:02:30;44.60;;;41.55;;
25111;SDS011;13092;51.996;4.458;2023-04-24T12:04:58;42.47;;;39.40;;
25111;SDS011;13092;51.996;4.458;2023-04-24T12:07:32;40.75;;;37.95;;
25111;SDS011;13092;51.996;4.458;2023-04-24T12:10:09;41.55;;;38.47;;
25111;SDS011;13092;51.996;4.458;2023-04-24T12:12:38;40.80;;;37.38;;
25111;SDS011;13092;51.996;4.458;2023-04-24T12:15:06;38.85;;;35.67;;
25111;SDS011;13092;51.996;4.458;2023-04-24T12:17:35;40.00;;;36.55;;
25111;SDS011;13092;51.996;4.458;2023-04-24T12:20:10;41.10;;;37.80;;
25111;SDS011;13092;51.996;4.458;2023-04-24T12:22:42;40.45;;;37.22;;
25111;SDS011;13092;51.996;4.458;2023-04-24T12:25:13;40.90;;;37.28;;
25111;SDS011;13092;51.996;4.458;2023-04-24T12:27:42;42.55;;;38.70;;
25111;SDS011;13092;51.996;4.458;2023-04-24T12:30:14;41.67;;;37.92;;
25111;SDS011;13092;51.996;4.458;2023-04-24T12:32:44;42.35;;;38.03;;
25111;SDS011;13092;51.996;4.458;2023-04-24T12:35:18;42.13;;;37.90;;
25111;SDS011;13092;51.996;4.458;2023-04-24T12:37:47;42.97;;;39.05;;
25111;SDS011;13092;51.996;4.458;2023-04-24T12:40:17;46.50;;;42.13;;
25111;SDS011;13092;51.996;4.458;2023-04-24T12:42:48;47.40;;;43.03;;
25111;SDS011;13092;51.996;4.458;2023-04-24T12:45:19;46.83;;;42.80;;
25111;SDS011;13092;51.996;4.458;2023-04-24T12:47:49;46.97;;;42.78;;
25111;SDS011;13092;51.996;4.458;2023-04-24T12:50:21;45.72;;;42.10;;
25111;SDS011;13092;51.996;4.458;2023-04-24T12:52:49;45.45;;;42.17;;
25111;SDS011;13092;51.996;4.458;2023-04-24T12:55:17;47.55;;;43.35;;
25111;SDS011;13092;51.996;4.458;2023-04-24T12:57:45;45.22;;;41.75;;
25111;SDS011;13092;51.996;4.458;2023-04-24T13:00:14;45.22;;;41.47;;
25111;SDS011;13092;51.996;4.458;2023-04-24T13:02:45;43.83;;;40.58;;
25111;SDS011;13092;51.996;4.458;2023-04-24T13:05:13;44.22;;;40.95;;
25111;SDS011;13092;51.996;4.458;2023-04-24T13:07:43;46.17;;;42.05;;
25111;SDS011;13092;51.996;4.458;2023-04-24T13:10:11;45.35;;;41.88;;
25111;SDS011;13092;51.996;4.458;2023-04-24T13:12:40;45.25;;;41.85;;
25111;SDS011;13092;51.996;4.458;2023-04-24T13:15:11;44.30;;;41.08;;
25111;SDS011;13092;51.996;4.458;2023-04-24T13:17:39;46.15;;;42.58;;
25111;SDS011;13092;51.996;4.458;2023-04-24T13:20:11;44.40;;;41.15;;
25111;SDS011;13092;51.996;4.458;2023-04-24T13:22:39;45.03;;;41.40;;
25111;SDS011;13092;51.996;4.458;2023-04-24T13:25:20;46.92;;;43.08;;
25111;SDS011;13092;51.996;4.458;2023-04-24T13:27:49;46.83;;;43.03;;
25111;SDS011;13092;51.996;4.458;2023-04-24T13:30:18;46.05;;;42.50;;
25111;SDS011;13092;51.996;4.458;2023-04-24T13:32:46;45.55;;;42.08;;
25111;SDS011;13092;51.996;4.458;2023-04-24T13:35:16;45.42;;;42.03;;
25111;SDS011;13092;51.996;4.458;2023-04-24T13:37:45;43.40;;;40.05;;
25111;SDS011;13092;51.996;4.458;2023-04-24T13:40:15;43.40;;;40.13;;
25111;SDS011;13092;51.996;4.458;2023-04-24T13:42:45;42.58;;;39.75;;
25111;SDS011;13092;51.996;4.458;2023-04-24T13:45:13;44.10;;;40.88;;
25111;SDS011;13092;51.996;4.458;2023-04-24T13:47:50;43.35;;;40.35;;
25111;SDS011;13092;51.996;4.458;2023-04-24T13:50:20;42.47;;;39.38;;
25111;SDS011;13092;51.996;4.458;2023-04-24T13:52:49;31.38;;;29.13;;
25111;SDS011;13092;51.996;4.458;2023-04-24T13:55:17;10.68;;;8.25;;
25111;SDS011;13092;51.996;4.458;2023-04-24T13:57:46;10.05;;;5.90;;
25111;SDS011;13092;51.996;4.458;2023-04-24T14:00:15;11.43;;;7.13;;
25111;SDS011;13092;51.996;4.458;2023-04-24T14:02:44;16.90;;;8.13;;
25111;SDS011;13092;51.996;4.458;2023-04-24T14:05:12;19.58;;;13.63;;
25111;SDS011;13092;51.996;4.458;2023-04-24T14:07:41;11.80;;;5.65;;
25111;SDS011;13092;51.996;4.458;2023-04-24T14:10:09;12.50;;;11.20;;
25111;SDS011;13092;51.996;4.458;2023-04-24T14:12:37;14.38;;;9.38;;
25111;SDS011;13092;51.996;4.458;2023-04-24T14:15:08;12.82;;;8.90;;
25111;SDS011;13092;51.996;4.458;2023-04-24T14:17:39;17.15;;;15.50;;
25111;SDS011;13092;51.996;4.458;2023-04-24T14:20:08;16.00;;;8.13;;
25111;SDS011;13092;51.996;4.458;2023-04-24T14:22:36;15.20;;;5.22;;
25111;SDS011;13092;51.996;4.458;2023-04-24T14:25:05;11.40;;;5.28;;
25111;SDS011;13092;51.996;4.458;2023-04-24T14:27:34;16.40;;;10.60;;
25111;SDS011;13092;51.996;4.458;2023-04-24T14:30:02;16.30;;;10.57;;
25111;SDS011;13092;51.996;4.458;2023-04-24T14:32:33;14.23;;;9.43;;
25111;SDS011;13092;51.996;4.458;2023-04-24T14:35:02;15.52;;;7.72;;
25111;SDS011;13092;51.996;4.458;2023-04-24T14:37:31;17.98;;;10.70;;
25111;SDS011;13092;51.996;4.458;2023-04-24T14:39:59;24.35;;;14.98;;
25111;SDS011;13092;51.996;4.458;2023-04-24T14:42:47;21.65;;;19.63;;